Tanja Jacob — A8YR7 — position and weather

sailwx.info

Track history (hours):
 
Tides and Currents Weather Stations Pressure Air Temp Water Temp Dewpoint Dewpoint Depression Visibility Wind Speed Wind Dir Waves Ship Positions

Tanja Jacob

Last reported at 2016-Jul-23 08:25 UTC. Time now 2016-Jul-24 10:41 UTC.
Position N 29°13' W 094°34'.

Length 227 m; draft 8.6 m.

Type: Ship. MMSI: 636092217.

Date/timePositionNaut miles runAvg speedWind from/ knotsBaromVisibWave heightAir tempDewpointWater temp
2016-Jul-23 08:25N 29°13' W 094°34'0 0.0
2016-Jul-21 14:25N 29°12' W 094°35'0 0.0
2016-Jul-21 13:12N 29°12' W 094°35'0 0.0
2016-Jul-21 12:21N 29°12' W 094°35'  
2016-Jul-17 11:22N 29°21' W 094°44'7 9.2
2016-Jul-17 10:33N 29°26' W 094°50'1110.5
2016-Jul-17 09:33N 29°35' W 094°56'10 9.7
2016-Jul-17 08:33N 29°43' W 095°01'5 5.4
2016-Jul-17 07:33N 29°44' W 095°08'0 0.1
2016-Jul-17 06:07N 29°44' W 095°08'0 0.0
2016-Jul-17 04:16N 29°44' W 095°08'0 0.0
2016-Jul-17 03:24N 29°44' W 095°08'0 0.0
2016-Jul-17 02:27N 29°44' W 095°08'0 0.0
2016-Jul-17 01:08N 29°44' W 095°08'0 0.0
2016-Jul-17 00:29N 29°44' W 095°08'0 0.0
2016-Jul-16 23:31N 29°44' W 095°08'0 0.0
2016-Jul-16 21:22N 29°44' W 095°08'0 0.0
2016-Jul-16 18:32N 29°44' W 095°08'0 0.0
2016-Jul-16 17:20N 29°44' W 095°08'0 0.0
2016-Jul-16 16:28N 29°44' W 095°08'0 0.0
2016-Jul-16 14:31N 29°44' W 095°08'0 0.0
2016-Jul-16 13:15N 29°44' W 095°08'0 0.0
2016-Jul-16 12:33N 29°44' W 095°08'0 0.0
2016-Jul-16 11:23N 29°44' W 095°08'0 0.0
2016-Jul-16 08:10N 29°44' W 095°08'0 0.0
2016-Jul-16 07:26N 29°44' W 095°08'0 0.0
2016-Jul-16 06:33N 29°44' W 095°08'0 0.0
2016-Jul-16 04:26N 29°44' W 095°08'0 0.0
2016-Jul-16 02:22N 29°44' W 095°08'0 0.0
2016-Jul-16 00:21N 29°44' W 095°08'0 0.0
2016-Jul-15 23:12N 29°44' W 095°08'0 0.0
2016-Jul-15 22:24N 29°44' W 095°08'0 0.0
2016-Jul-15 21:26N 29°44' W 095°08'0 0.0
2016-Jul-15 20:33N 29°44' W 095°08'2 2.4
2016-Jul-15 19:32N 29°46' W 095°05'8 8.0
2016-Jul-15 18:32N 29°40' W 094°59'1111.2
2016-Jul-15 17:33N 29°31' W 094°53'1211.1
2016-Jul-15 16:31N 29°21' W 094°46'14 6.4
2016-Jul-15 14:23N 29°12' W 094°34'0 0.1
2016-Jul-15 07:16N 29°12' W 094°35'0 0.0
2016-Jul-14 09:06N 29°12' W 094°35'0 0.0
2016-Jul-14 08:33N 29°12' W 094°35'0 0.0
2016-Jul-14 07:32N 29°12' W 094°35'0 0.0
2016-Jul-14 06:32N 29°12' W 094°35'  
Track history (hours):
 
Tides and Currents Weather Stations Pressure Air Temp Water Temp Dewpoint Dewpoint Depression Visibility Wind Speed Wind Dir Waves Ship Positions

Tanja Jacob

Last reported at 2016-Jul-23 08:25 UTC. Time now 2016-Jul-24 10:41 UTC.
Position N 29°13' W 094°34'.

Length 227 m; draft 8.6 m.

Type: Ship. MMSI: 636092217.

Date/timePositionNaut miles runAvg speedWind from/ knotsBaromVisibWave heightAir tempDewpointWater temp
2016-Jul-23 08:25N 29°13' W 094°34'0 0.0
2016-Jul-21 14:25N 29°12' W 094°35'0 0.0
2016-Jul-21 13:12N 29°12' W 094°35'0 0.0
2016-Jul-21 12:21N 29°12' W 094°35'  
2016-Jul-17 11:22N 29°21' W 094°44'7 9.2
2016-Jul-17 10:33N 29°26' W 094°50'1110.5
2016-Jul-17 09:33N 29°35' W 094°56'10 9.7
2016-Jul-17 08:33N 29°43' W 095°01'5 5.4
2016-Jul-17 07:33N 29°44' W 095°08'0 0.1
2016-Jul-17 06:07N 29°44' W 095°08'0 0.0
2016-Jul-17 04:16N 29°44' W 095°08'0 0.0
2016-Jul-17 03:24N 29°44' W 095°08'0 0.0
2016-Jul-17 02:27N 29°44' W 095°08'0 0.0
2016-Jul-17 01:08N 29°44' W 095°08'0 0.0
2016-Jul-17 00:29N 29°44' W 095°08'0 0.0
2016-Jul-16 23:31N 29°44' W 095°08'0 0.0
2016-Jul-16 21:22N 29°44' W 095°08'0 0.0
2016-Jul-16 18:32N 29°44' W 095°08'0 0.0
2016-Jul-16 17:20N 29°44' W 095°08'0 0.0
2016-Jul-16 16:28N 29°44' W 095°08'0 0.0
2016-Jul-16 14:31N 29°44' W 095°08'0 0.0
2016-Jul-16 13:15N 29°44' W 095°08'0 0.0
2016-Jul-16 12:33N 29°44' W 095°08'0 0.0
2016-Jul-16 11:23N 29°44' W 095°08'0 0.0
2016-Jul-16 08:10N 29°44' W 095°08'0 0.0
2016-Jul-16 07:26N 29°44' W 095°08'0 0.0
2016-Jul-16 06:33N 29°44' W 095°08'0 0.0
2016-Jul-16 04:26N 29°44' W 095°08'0 0.0
2016-Jul-16 02:22N 29°44' W 095°08'0 0.0
2016-Jul-16 00:21N 29°44' W 095°08'0 0.0
2016-Jul-15 23:12N 29°44' W 095°08'0 0.0
2016-Jul-15 22:24N 29°44' W 095°08'0 0.0
2016-Jul-15 21:26N 29°44' W 095°08'0 0.0
2016-Jul-15 20:33N 29°44' W 095°08'2 2.4
2016-Jul-15 19:32N 29°46' W 095°05'8 8.0
2016-Jul-15 18:32N 29°40' W 094°59'1111.2
2016-Jul-15 17:33N 29°31' W 094°53'1211.1
2016-Jul-15 16:31N 29°21' W 094°46'14 6.4
2016-Jul-15 14:23N 29°12' W 094°34'0 0.1
2016-Jul-15 07:16N 29°12' W 094°35'0 0.0
2016-Jul-14 09:06N 29°12' W 094°35'0 0.0
2016-Jul-14 08:33N 29°12' W 094°35'0 0.0
2016-Jul-14 07:32N 29°12' W 094°35'0 0.0
2016-Jul-14 06:32N 29°12' W 094°35'  

Dump ship's entire track history